Time;durP1;ratioP1;P1;durP2;ratioP2;P2;SDS_P1;SDS_P2;PMS_P1;PMS_P2;Temp;Humidity;BMP_temperature;BMP_pressure;BME280_temperature;BME280_humidity;BME280_pressure;Samples;Min_cycle;Max_cycle;Signal;HPM_P1;HPM_P2
2021/01/31 00:02:16;;;;;;;58.17;29.55;;;;;;;;;;10338509;28;20067;-72
2021/01/31 00:07:14;;;;;;;73.88;33.65;;;;;;;;;;10337074;28;20544;-72
2021/01/31 00:12:11;;;;;;;88.00;39.50;;;;;;;;;;10336915;28;20068;-72
2021/01/31 00:17:08;;;;;;;85.20;39.42;;;;;;;;;;10337674;28;20068;-71
2021/01/31 00:22:07;;;;;;;62.40;31.55;;;;;;;;;;10336451;28;20067;-71
2021/01/31 00:27:04;;;;;;;60.70;29.92;;;;;;;;;;10337108;28;20087;-71
2021/01/31 00:32:02;;;;;;;93.88;45.55;;;;;;;;;;10334759;28;20532;-71
2021/01/31 00:36:59;;;;;;;115.20;66.97;;;;;;;;;;10335679;28;20528;-74
2021/01/31 00:41:57;;;;;;;54.17;27.10;;;;;;;;;;10335033;28;20532;-72
2021/01/31 00:46:55;;;;;;;62.80;31.73;;;;;;;;;;10336312;28;20091;-71
2021/01/31 00:51:52;;;;;;;92.13;43.72;;;;;;;;;;10333944;28;20048;-71
2021/01/31 00:56:50;;;;;;;147.63;70.35;;;;;;;;;;10333679;28;20466;-71
2021/01/31 01:01:48;;;;;;;98.90;51.60;;;;;;;;;;10335265;28;20048;-71
2021/01/31 01:06:46;;;;;;;109.38;57.80;;;;;;;;;;10330667;28;20086;-71
2021/01/31 01:11:43;;;;;;;63.83;33.50;;;;;;;;;;10336501;28;20114;-72
2021/01/31 01:16:40;;;;;;;133.63;60.30;;;;;;;;;;10334073;28;20086;-71
2021/01/31 01:21:39;;;;;;;80.53;36.63;;;;;;;;;;10335300;28;20045;-72
2021/01/31 01:26:36;;;;;;;54.92;26.70;;;;;;;;;;10335605;28;20076;-71
2021/01/31 01:31:33;;;;;;;63.13;28.90;;;;;;;;;;10333331;28;20081;-71
2021/01/31 01:36:30;;;;;;;80.43;35.17;;;;;;;;;;10335776;28;20075;-71
2021/01/31 01:41:35;;;;;;;60.45;27.05;;;;;;;;;;10334102;28;20102;-72
2021/01/31 01:46:34;;;;;;;91.47;35.58;;;;;;;;;;10339356;28;20056;-71
2021/01/31 01:51:36;;;;;;;74.15;31.42;;;;;;;;;;10339646;28;20477;-72
2021/01/31 01:56:36;;;;;;;69.78;30.85;;;;;;;;;;10338266;28;20509;-72
2021/01/31 02:01:35;;;;;;;64.75;27.75;;;;;;;;;;10339569;28;20064;-71
2021/01/31 02:06:32;;;;;;;48.90;22.90;;;;;;;;;;10338987;28;20078;-70
2021/01/31 02:11:29;;;;;;;51.35;23.27;;;;;;;;;;10343302;28;20685;-72
2021/01/31 02:16:31;;;;;;;38.75;18.63;;;;;;;;;;10341935;28;20071;-72
2021/01/31 02:21:48;;;;;;;95.70;48.30;;;;;;;;;;10340035;28;20076;-70
2021/01/31 02:27:00;;;;;;;81.50;38.97;;;;;;;;;;10340231;28;20477;-70
2021/01/31 02:32:13;;;;;;;76.45;34.53;;;;;;;;;;10337561;28;20083;-71
2021/01/31 02:37:17;;;;;;;81.78;41.00;;;;;;;;;;10340511;28;20074;-71
2021/01/31 02:42:18;;;;;;;56.78;24.98;;;;;;;;;;10340324;28;20040;-72
2021/01/31 02:47:17;;;;;;;40.10;17.30;;;;;;;;;;10337452;28;20079;-72
2021/01/31 02:52:18;;;;;;;49.20;18.45;;;;;;;;;;10339981;28;20064;-70
2021/01/31 02:57:17;;;;;;;46.85;18.77;;;;;;;;;;10339801;28;20078;-71
2021/01/31 03:02:16;;;;;;;67.38;26.98;;;;;;;;;;10340967;28;20068;-71
2021/01/31 03:07:18;;;;;;;38.35;16.17;;;;;;;;;;10339595;28;20074;-72
2021/01/31 03:12:18;;;;;;;32.67;14.48;;;;;;;;;;10340700;28;20072;-72
2021/01/31 03:17:17;;;;;;;38.67;14.23;;;;;;;;;;10339445;28;20511;-71
2021/01/31 03:22:18;;;;;;;35.80;14.20;;;;;;;;;;10340452;28;20083;-72
2021/01/31 03:27:17;;;;;;;52.00;17.55;;;;;;;;;;10338532;28;20080;-71
2021/01/31 03:32:17;;;;;;;40.03;16.70;;;;;;;;;;10339272;28;20070;-72
2021/01/31 03:37:15;;;;;;;41.80;16.33;;;;;;;;;;10339001;28;20503;-70
2021/01/31 03:42:14;;;;;;;34.05;14.15;;;;;;;;;;10337901;28;20072;-71
2021/01/31 03:47:18;;;;;;;33.90;14.20;;;;;;;;;;10339136;28;20079;-71
2021/01/31 03:52:15;;;;;;;36.17;14.23;;;;;;;;;;10338664;28;20072;-71
2021/01/31 03:57:15;;;;;;;37.83;14.90;;;;;;;;;;10337995;28;20051;-71
2021/01/31 04:02:13;;;;;;;35.85;14.35;;;;;;;;;;10337988;28;20068;-72
2021/01/31 04:07:13;;;;;;;34.20;15.60;;;;;;;;;;10337582;28;20083;-70
2021/01/31 04:12:13;;;;;;;39.00;15.82;;;;;;;;;;10337076;28;20076;-70
2021/01/31 04:17:12;;;;;;;32.33;13.35;;;;;;;;;;10338649;28;20087;-72
2021/01/31 04:22:09;;;;;;;34.90;12.88;;;;;;;;;;10334011;28;20078;-72
2021/01/31 04:27:07;;;;;;;17.65;9.35;;;;;;;;;;10337999;28;20083;-71
2021/01/31 04:32:04;;;;;;;34.35;13.65;;;;;;;;;;10336108;28;20067;-71
2021/01/31 04:37:03;;;;;;;26.63;10.98;;;;;;;;;;10336786;28;20076;-71
2021/01/31 04:42:02;;;;;;;21.67;9.15;;;;;;;;;;10336558;28;20071;-71
2021/01/31 04:47:03;;;;;;;28.02;10.57;;;;;;;;;;10335710;28;20071;-71
2021/01/31 04:52:10;;;;;;;25.80;10.73;;;;;;;;;;10336813;28;20137;-71
2021/01/31 04:57:12;;;;;;;24.80;11.50;;;;;;;;;;10335067;28;20087;-71
2021/01/31 05:02:11;;;;;;;16.00;7.93;;;;;;;;;;10334956;28;20079;-70
2021/01/31 05:07:09;;;;;;;21.42;9.98;;;;;;;;;;10335696;28;20098;-71
2021/01/31 05:12:12;;;;;;;20.20;10.85;;;;;;;;;;10335464;28;20060;-71
2021/01/31 05:17:09;;;;;;;19.45;9.90;;;;;;;;;;10335700;28;20449;-72
2021/01/31 05:22:07;;;;;;;25.02;11.05;;;;;;;;;;10335229;28;20064;-71
2021/01/31 05:27:07;;;;;;;17.83;7.88;;;;;;;;;;10334822;28;20064;-72
2021/01/31 05:32:06;;;;;;;16.55;8.10;;;;;;;;;;10335615;28;20163;-71
2021/01/31 05:37:04;;;;;;;23.67;10.32;;;;;;;;;;10334221;28;20071;-72
2021/01/31 05:42:04;;;;;;;23.60;11.25;;;;;;;;;;10335956;28;20074;-71
2021/01/31 05:47:14;;;;;;;26.40;10.80;;;;;;;;;;10331684;28;20078;-72
2021/01/31 05:52:27;;;;;;;17.75;8.25;;;;;;;;;;10334161;28;20072;-72
2021/01/31 05:57:26;;;;;;;22.10;7.90;;;;;;;;;;10332074;28;20076;-72
2021/01/31 06:02:25;;;;;;;13.52;6.40;;;;;;;;;;10335350;28;20090;-71
2021/01/31 06:07:23;;;;;;;28.30;11.43;;;;;;;;;;10324942;28;20090;-71
2021/01/31 06:12:24;;;;;;;14.82;6.63;;;;;;;;;;10330709;28;20071;-71
2021/01/31 06:17:23;;;;;;;10.63;6.22;;;;;;;;;;10330854;28;20508;-72
2021/01/31 06:22:36;;;;;;;17.42;7.95;;;;;;;;;;10335026;28;20513;-71
2021/01/31 06:27:34;;;;;;;9.95;5.93;;;;;;;;;;10334424;28;20076;-71
2021/01/31 06:32:33;;;;;;;9.73;4.95;;;;;;;;;;10340987;28;20525;-75
2021/01/31 06:37:40;;;;;;;7.55;5.53;;;;;;;;;;10340551;28;20080;-71
2021/01/31 06:42:43;;;;;;;119.70;68.90;;;;;;;;;;10340773;28;20076;-72
2021/01/31 06:47:51;;;;;;;431.58;213.95;;;;;;;;;;10332663;28;20068;-72
2021/01/31 06:52:57;;;;;;;169.77;76.13;;;;;;;;;;10308846;28;20076;-70
2021/01/31 06:58:12;;;;;;;160.52;70.90;;;;;;;;;;10338138;28;20075;-70
2021/01/31 07:03:21;;;;;;;107.53;53.80;;;;;;;;;;10327415;28;20488;-67
2021/01/31 07:08:32;;;;;;;177.63;84.53;;;;;;;;;;10311135;28;20075;-71
2021/01/31 07:13:38;;;;;;;165.52;80.93;;;;;;;;;;10333588;28;20485;-72
2021/01/31 07:18:39;;;;;;;148.82;66.28;;;;;;;;;;10334004;28;20075;-71
2021/01/31 07:23:38;;;;;;;96.70;38.03;;;;;;;;;;10334143;28;20079;-70
2021/01/31 07:28:37;;;;;;;96.15;46.20;;;;;;;;;;10337680;28;20076;-71
2021/01/31 07:33:39;;;;;;;62.47;27.63;;;;;;;;;;10339333;28;20072;-71
2021/01/31 07:38:40;;;;;;;87.07;44.28;;;;;;;;;;10337215;28;20063;-71
2021/01/31 08:01:14;;;;;;;33.28;22.67;;;;;;;;;;10336097;28;20060;-71
2021/01/31 08:06:27;;;;;;;91.95;43.17;;;;;;;;;;10336396;28;20492;-70
2021/01/31 08:11:52;;;;;;;26.33;13.63;;;;;;;;;;10333552;28;20079;-70
2021/01/31 08:16:56;;;;;;;31.27;18.35;;;;;;;;;;10334152;28;20067;-71
2021/01/31 08:21:54;;;;;;;53.85;42.40;;;;;;;;;;10334322;28;20078;-70
2021/01/31 08:26:52;;;;;;;29.85;19.80;;;;;;;;;;10338060;28;20082;-72
2021/01/31 08:32:13;;;;;;;25.52;15.57;;;;;;;;;;10333750;28;20476;-73
2021/01/31 08:37:20;;;;;;;105.28;71.72;;;;;;;;;;10318172;28;20086;-72
2021/01/31 08:42:18;;;;;;;154.33;98.20;;;;;;;;;;10336203;28;20079;-72
2021/01/31 08:47:15;;;;;;;74.70;51.45;;;;;;;;;;10337082;28;20507;-71
2021/01/31 08:52:14;;;;;;;66.15;46.70;;;;;;;;;;10332924;28;20457;-71
2021/01/31 08:57:14;;;;;;;64.70;46.70;;;;;;;;;;10332311;28;20504;-71
2021/01/31 09:02:19;;;;;;;48.22;37.50;;;;;;;;;;10332800;28;20460;-71
2021/01/31 09:07:20;;;;;;;30.60;22.95;;;;;;;;;;10336312;28;20449;-72
2021/01/31 09:12:19;;;;;;;48.75;29.95;;;;;;;;;;10334773;28;20072;-71
2021/01/31 09:17:21;;;;;;;42.92;30.40;;;;;;;;;;10336350;28;20064;-72
2021/01/31 09:22:20;;;;;;;27.00;19.30;;;;;;;;;;10334478;28;20437;-71
2021/01/31 09:27:20;;;;;;;24.60;16.10;;;;;;;;;;10335744;28;20083;-71
2021/01/31 09:32:19;;;;;;;31.13;16.65;;;;;;;;;;10331478;28;20059;-72
2021/01/31 09:37:20;;;;;;;17.25;12.73;;;;;;;;;;10331520;28;20056;-72
2021/01/31 09:42:19;;;;;;;15.75;12.68;;;;;;;;;;10331740;28;20449;-70
2021/01/31 09:47:19;;;;;;;15.98;12.48;;;;;;;;;;10333665;28;20060;-72
2021/01/31 09:52:17;;;;;;;38.63;19.88;;;;;;;;;;10328570;28;20091;-72
2021/01/31 09:57:19;;;;;;;22.92;13.95;;;;;;;;;;10335226;28;20075;-71
2021/01/31 10:02:19;;;;;;;36.80;24.33;;;;;;;;;;10336364;28;20518;-72
2021/01/31 10:07:29;;;;;;;34.92;24.00;;;;;;;;;;10338770;28;20083;-73
2021/01/31 10:12:27;;;;;;;26.08;15.75;;;;;;;;;;10283776;28;20072;-69
2021/01/31 10:17:34;;;;;;;17.42;12.73;;;;;;;;;;10327735;28;20076;-69
2021/01/31 10:22:31;;;;;;;25.35;17.55;;;;;;;;;;10353363;28;20064;-71
2021/01/31 10:27:33;;;;;;;16.83;13.10;;;;;;;;;;10302551;28;20518;-69
2021/01/31 10:32:41;;;;;;;22.80;16.33;;;;;;;;;;10299269;28;20080;-70
2021/01/31 10:37:39;;;;;;;32.17;21.23;;;;;;;;;;10301541;28;20478;-69
2021/01/31 10:42:36;;;;;;;26.88;18.42;;;;;;;;;;10301655;28;20068;-69
2021/01/31 10:47:33;;;;;;;38.30;29.83;;;;;;;;;;10295271;28;20077;-69
2021/01/31 10:52:32;;;;;;;23.00;17.48;;;;;;;;;;10310568;28;20082;-70
2021/01/31 10:57:30;;;;;;;25.00;18.90;;;;;;;;;;10298855;28;20409;-69
2021/01/31 11:02:28;;;;;;;29.55;22.65;;;;;;;;;;10304643;28;20105;-69
2021/01/31 11:07:34;;;;;;;21.33;17.77;;;;;;;;;;10284777;28;20045;-70
2021/01/31 11:12:31;;;;;;;22.10;19.02;;;;;;;;;;10292265;28;20052;-70
2021/01/31 11:17:29;;;;;;;25.70;19.33;;;;;;;;;;10301562;28;20395;-70
2021/01/31 11:22:26;;;;;;;24.58;18.60;;;;;;;;;;10290451;28;20064;-71
2021/01/31 11:27:25;;;;;;;50.05;33.08;;;;;;;;;;10300468;28;20083;-67
2021/01/31 11:32:23;;;;;;;31.42;23.38;;;;;;;;;;10294399;28;20080;-70
2021/01/31 11:37:20;;;;;;;454.20;74.65;;;;;;;;;;10291326;28;20045;-72
2021/01/31 11:42:17;;;;;;;57.30;24.88;;;;;;;;;;10291955;28;20060;-71
2021/01/31 11:47:16;;;;;;;99.90;29.20;;;;;;;;;;10292719;28;20067;-71
2021/01/31 11:52:13;;;;;;;55.72;32.00;;;;;;;;;;10306278;28;20095;-73
2021/01/31 11:57:15;;;;;;;82.00;34.40;;;;;;;;;;10279396;28;20041;-72
2021/01/31 12:02:33;;;;;;;55.03;33.13;;;;;;;;;;10293866;28;20495;-70
2021/01/31 12:07:33;;;;;;;45.38;28.75;;;;;;;;;;10284952;28;20465;-73
2021/01/31 12:12:34;;;;;;;74.28;36.85;;;;;;;;;;10332681;28;20087;-73
2021/01/31 12:17:38;;;;;;;63.92;33.10;;;;;;;;;;10324064;28;20071;-73
2021/01/31 12:22:41;;;;;;;108.50;40.03;;;;;;;;;;10324327;28;20537;-73
2021/01/31 12:27:39;;;;;;;109.38;49.20;;;;;;;;;;10319435;28;20193;-72
2021/01/31 12:32:40;;;;;;;36.05;28.58;;;;;;;;;;10353804;28;20076;-72
2021/01/31 12:37:42;;;;;;;59.33;40.72;;;;;;;;;;10353538;28;20572;-72
2021/01/31 12:42:40;;;;;;;50.42;36.50;;;;;;;;;;10353799;28;20071;-73
2021/01/31 12:47:37;;;;;;;63.47;42.88;;;;;;;;;;10343594;28;20479;-73
2021/01/31 12:52:59;;;;;;;44.00;32.97;;;;;;;;;;10353382;28;20128;-72
2021/01/31 12:57:56;;;;;;;70.15;36.22;;;;;;;;;;10352866;28;20078;-73
2021/01/31 13:02:53;;;;;;;60.40;37.78;;;;;;;;;;10353204;28;20550;-71
2021/01/31 13:07:51;;;;;;;46.35;32.22;;;;;;;;;;10353200;28;20539;-73
2021/01/31 13:12:49;;;;;;;57.15;33.20;;;;;;;;;;10352620;28;20067;-72
2021/01/31 13:17:47;;;;;;;54.30;39.03;;;;;;;;;;10351679;28;20072;-73
2021/01/31 13:22:44;;;;;;;65.40;42.35;;;;;;;;;;10352034;28;20086;-72
2021/01/31 13:27:42;;;;;;;59.70;42.67;;;;;;;;;;10335284;28;20059;-73
2021/01/31 13:32:40;;;;;;;48.10;35.92;;;;;;;;;;10352066;28;20087;-72
2021/01/31 13:37:37;;;;;;;75.05;42.20;;;;;;;;;;10352003;28;20074;-71
2021/01/31 13:42:35;;;;;;;64.78;36.08;;;;;;;;;;10327456;28;20080;-73
2021/01/31 13:47:32;;;;;;;287.95;73.13;;;;;;;;;;10316765;28;20044;-71
2021/01/31 13:52:30;;;;;;;119.07;47.83;;;;;;;;;;10316797;28;20091;-71
2021/01/31 13:57:28;;;;;;;66.97;38.70;;;;;;;;;;10316431;28;20075;-71
2021/01/31 14:02:25;;;;;;;89.00;43.08;;;;;;;;;;10316582;28;20052;-71
2021/01/31 14:07:22;;;;;;;56.75;37.15;;;;;;;;;;10316787;28;20044;-72
2021/01/31 14:12:21;;;;;;;55.33;38.25;;;;;;;;;;10315942;28;20076;-72
2021/01/31 14:17:18;;;;;;;97.18;49.20;;;;;;;;;;10323898;28;20041;-71
2021/01/31 14:22:16;;;;;;;63.17;37.83;;;;;;;;;;10315545;28;20052;-72
2021/01/31 14:27:13;;;;;;;150.32;52.10;;;;;;;;;;10316103;28;20056;-73
2021/01/31 14:32:11;;;;;;;91.03;53.45;;;;;;;;;;10315739;28;20076;-74
2021/01/31 14:37:08;;;;;;;83.25;43.45;;;;;;;;;;10315780;28;20049;-73
2021/01/31 14:42:06;;;;;;;89.47;46.80;;;;;;;;;;10315706;28;20420;-73
2021/01/31 14:47:03;;;;;;;57.10;39.45;;;;;;;;;;10315606;28;20083;-73
2021/01/31 14:52:01;;;;;;;47.28;35.17;;;;;;;;;;10321858;28;20072;-73
2021/01/31 14:56:59;;;;;;;53.30;41.97;;;;;;;;;;10322255;28;20055;-74
2021/01/31 15:01:56;;;;;;;63.35;42.47;;;;;;;;;;10320443;28;20044;-70
2021/01/31 15:06:53;;;;;;;83.72;58.60;;;;;;;;;;10306329;28;20075;-70
2021/01/31 15:11:52;;;;;;;59.25;43.88;;;;;;;;;;10304358;28;20072;-70
2021/01/31 15:16:51;;;;;;;54.92;41.80;;;;;;;;;;10297360;28;20300;-70
2021/01/31 15:21:48;;;;;;;46.72;35.10;;;;;;;;;;10288095;28;20501;-70
2021/01/31 15:26:45;;;;;;;49.80;39.80;;;;;;;;;;10282499;28;20080;-71
2021/01/31 15:31:44;;;;;;;54.85;37.28;;;;;;;;;;10298495;28;20068;-70
2021/01/31 15:36:41;;;;;;;52.05;36.88;;;;;;;;;;10294046;28;20509;-70
2021/01/31 15:41:38;;;;;;;42.22;32.30;;;;;;;;;;10283564;28;20056;-70
2021/01/31 15:46:36;;;;;;;44.83;34.92;;;;;;;;;;10279808;28;20041;-69
2021/01/31 15:51:34;;;;;;;41.97;31.17;;;;;;;;;;10278676;28;20083;-70
2021/01/31 15:56:31;;;;;;;53.28;39.13;;;;;;;;;;10287023;28;20568;-70
2021/01/31 16:01:34;;;;;;;51.15;37.88;;;;;;;;;;10310842;28;20063;-69
2021/01/31 16:06:32;;;;;;;48.75;34.55;;;;;;;;;;10304002;28;20075;-68
2021/01/31 16:11:31;;;;;;;39.50;31.50;;;;;;;;;;10278754;28;20134;-68
2021/01/31 16:16:29;;;;;;;61.05;44.35;;;;;;;;;;10278438;28;20096;-68
2021/01/31 16:21:27;;;;;;;76.95;52.88;;;;;;;;;;10290196;28;20076;-70
2021/01/31 16:26:25;;;;;;;55.10;37.80;;;;;;;;;;10291034;28;20082;-69
2021/01/31 16:31:24;;;;;;;47.85;32.10;;;;;;;;;;10316993;28;20075;-70
2021/01/31 16:36:21;;;;;;;48.97;35.97;;;;;;;;;;10289576;28;20048;-69
2021/01/31 16:41:19;;;;;;;42.22;32.38;;;;;;;;;;10287283;28;20083;-69
2021/01/31 16:46:19;;;;;;;38.72;30.13;;;;;;;;;;10299689;28;20060;-68
2021/01/31 16:51:21;;;;;;;44.90;33.22;;;;;;;;;;10300777;28;20091;-68
2021/01/31 16:56:18;;;;;;;40.13;30.63;;;;;;;;;;10292446;28;20060;-67
2021/01/31 17:01:16;;;;;;;46.67;33.17;;;;;;;;;;10290737;28;20072;-68
2021/01/31 17:06:13;;;;;;;46.30;35.47;;;;;;;;;;10296440;28;20048;-68
2021/01/31 17:11:12;;;;;;;48.00;37.40;;;;;;;;;;10276053;28;20080;-68
2021/01/31 17:16:11;;;;;;;57.97;40.05;;;;;;;;;;10299583;28;20079;-68
2021/01/31 17:21:12;;;;;;;53.28;38.42;;;;;;;;;;10319787;28;20051;-70
2021/01/31 17:26:10;;;;;;;47.42;34.28;;;;;;;;;;10358115;28;20405;-70
2021/01/31 17:31:09;;;;;;;49.17;36.90;;;;;;;;;;10357213;28;20078;-70
2021/01/31 17:36:06;;;;;;;39.00;31.10;;;;;;;;;;10331015;28;20482;-70
2021/01/31 17:41:04;;;;;;;49.20;35.45;;;;;;;;;;10276080;28;20425;-69
2021/01/31 17:46:01;;;;;;;42.63;33.80;;;;;;;;;;10273913;28;20582;-68
2021/01/31 17:50:59;;;;;;;53.15;35.67;;;;;;;;;;10275549;28;20084;-69
2021/01/31 17:55:57;;;;;;;54.42;36.38;;;;;;;;;;10291365;28;20041;-69
2021/01/31 18:00:54;;;;;;;51.70;34.85;;;;;;;;;;10297055;28;20048;-68
2021/01/31 18:05:51;;;;;;;52.33;36.15;;;;;;;;;;10311279;28;20044;-69
2021/01/31 18:10:50;;;;;;;48.90;34.90;;;;;;;;;;10274688;28;20080;-70
2021/01/31 18:15:47;;;;;;;47.20;34.67;;;;;;;;;;10273914;28;20049;-71
2021/01/31 18:20:44;;;;;;;50.70;36.45;;;;;;;;;;10275129;28;20048;-71
2021/01/31 18:25:42;;;;;;;55.80;37.72;;;;;;;;;;10278267;28;20081;-70
2021/01/31 18:30:41;;;;;;;50.45;36.95;;;;;;;;;;10281211;28;20089;-70
2021/01/31 18:35:38;;;;;;;49.85;34.95;;;;;;;;;;10282014;28;20061;-70
2021/01/31 18:40:37;;;;;;;45.45;34.33;;;;;;;;;;10281704;28;20041;-69
2021/01/31 18:45:35;;;;;;;47.88;32.83;;;;;;;;;;10281851;28;20202;-69
2021/01/31 18:50:33;;;;;;;42.83;32.25;;;;;;;;;;10285021;28;20048;-70
2021/01/31 18:55:36;;;;;;;45.22;35.10;;;;;;;;;;10300392;28;20071;-69
2021/01/31 19:00:34;;;;;;;58.75;36.72;;;;;;;;;;10303035;28;20065;-70
2021/01/31 19:05:33;;;;;;;43.28;32.95;;;;;;;;;;10321972;28;20068;-70
2021/01/31 19:10:33;;;;;;;42.92;31.42;;;;;;;;;;10303943;28;20072;-70
2021/01/31 19:15:31;;;;;;;39.08;29.25;;;;;;;;;;10312256;28;20044;-70
2021/01/31 19:20:29;;;;;;;43.63;32.50;;;;;;;;;;10321475;28;20056;-70
2021/01/31 19:25:29;;;;;;;40.13;29.38;;;;;;;;;;10321441;28;20076;-70
2021/01/31 19:30:31;;;;;;;45.42;31.15;;;;;;;;;;10320026;28;20076;-69
2021/01/31 19:35:29;;;;;;;43.13;32.78;;;;;;;;;;10310960;28;20075;-69
2021/01/31 19:40:27;;;;;;;40.28;29.20;;;;;;;;;;10287865;28;20080;-70
2021/01/31 19:45:27;;;;;;;42.30;32.13;;;;;;;;;;10293695;28;20048;-71
2021/01/31 19:50:25;;;;;;;40.15;28.52;;;;;;;;;;10301336;28;20088;-69
2021/01/31 19:55:28;;;;;;;43.33;30.42;;;;;;;;;;10282836;28;20076;-68
2021/01/31 20:00:27;;;;;;;40.85;29.25;;;;;;;;;;10295328;28;20525;-69
2021/01/31 20:05:25;;;;;;;41.53;29.27;;;;;;;;;;10314647;28;20068;-68
2021/01/31 20:10:24;;;;;;;50.75;36.20;;;;;;;;;;10295529;28;20568;-68
2021/01/31 20:15:21;;;;;;;47.47;37.33;;;;;;;;;;10284638;28;20059;-67
2021/01/31 20:20:22;;;;;;;39.25;27.60;;;;;;;;;;10290442;28;20045;-69
2021/01/31 20:25:22;;;;;;;42.13;29.92;;;;;;;;;;10277627;28;20045;-67
2021/01/31 20:30:20;;;;;;;36.15;26.92;;;;;;;;;;10281498;28;20072;-69
2021/01/31 20:35:18;;;;;;;36.25;26.58;;;;;;;;;;10304488;28;20079;-67
2021/01/31 20:40:21;;;;;;;37.38;26.83;;;;;;;;;;10321240;28;20065;-67
2021/01/31 20:45:20;;;;;;;36.08;25.58;;;;;;;;;;10338673;28;20543;-68
2021/01/31 20:50:20;;;;;;;37.60;25.35;;;;;;;;;;10328549;28;20075;-67
2021/01/31 20:55:21;;;;;;;32.55;24.30;;;;;;;;;;10331400;28;20071;-67
2021/01/31 21:00:20;;;;;;;32.15;23.63;;;;;;;;;;10332666;28;20044;-68
2021/01/31 21:05:21;;;;;;;32.35;23.80;;;;;;;;;;10330857;28;20071;-67
2021/01/31 21:10:19;;;;;;;33.47;23.85;;;;;;;;;;10331441;28;20075;-67
2021/01/31 21:15:17;;;;;;;34.47;24.10;;;;;;;;;;10326827;28;20074;-67
2021/01/31 21:20:15;;;;;;;37.28;25.65;;;;;;;;;;10305606;28;20455;-68
2021/01/31 21:25:12;;;;;;;33.75;24.45;;;;;;;;;;10276430;28;20467;-67
2021/01/31 21:30:11;;;;;;;42.58;28.55;;;;;;;;;;10275507;28;20061;-67
2021/01/31 21:35:10;;;;;;;36.65;25.08;;;;;;;;;;10274891;28;20041;-68
2021/01/31 21:40:08;;;;;;;35.45;25.60;;;;;;;;;;10318157;28;20083;-67
2021/01/31 21:45:07;;;;;;;33.40;23.88;;;;;;;;;;10330477;28;20099;-68
2021/01/31 21:50:05;;;;;;;36.83;23.55;;;;;;;;;;10328779;28;20111;-68
2021/01/31 21:55:04;;;;;;;37.45;24.90;;;;;;;;;;10325342;28;20126;-68
2021/01/31 22:00:03;;;;;;;34.72;22.67;;;;;;;;;;10332219;28;20527;-67
2021/01/31 22:05:01;;;;;;;32.38;23.75;;;;;;;;;;10340128;28;20068;-67
2021/01/31 22:09:59;;;;;;;33.63;22.02;;;;;;;;;;10337639;28;20080;-66
2021/01/31 22:14:57;;;;;;;34.35;23.45;;;;;;;;;;10331824;28;20519;-67
2021/01/31 22:19:55;;;;;;;36.78;23.70;;;;;;;;;;10297563;28;20080;-68
2021/01/31 22:24:52;;;;;;;34.30;23.00;;;;;;;;;;10291176;28;20095;-67
2021/01/31 22:29:49;;;;;;;35.63;24.25;;;;;;;;;;10298478;28;20136;-67
2021/01/31 22:34:48;;;;;;;34.20;25.30;;;;;;;;;;10293872;28;20073;-67
2021/01/31 22:39:45;;;;;;;31.77;23.63;;;;;;;;;;10315419;28;20076;-67
2021/01/31 22:44:42;;;;;;;34.35;22.13;;;;;;;;;;10284141;28;20060;-67
2021/01/31 22:49:40;;;;;;;29.83;20.52;;;;;;;;;;10288630;28;20064;-67
2021/01/31 22:54:38;;;;;;;30.35;20.85;;;;;;;;;;10284642;28;20072;-67
2021/01/31 22:59:36;;;;;;;28.38;19.67;;;;;;;;;;10293420;28;20060;-67
2021/01/31 23:04:33;;;;;;;29.10;20.30;;;;;;;;;;10284773;28;20548;-67
2021/01/31 23:09:30;;;;;;;29.23;20.35;;;;;;;;;;10283201;28;20060;-67
2021/01/31 23:14:29;;;;;;;34.75;22.52;;;;;;;;;;10287096;28;20114;-68
2021/01/31 23:19:26;;;;;;;32.15;21.17;;;;;;;;;;10280524;28;20037;-68
2021/01/31 23:24:23;;;;;;;30.13;21.90;;;;;;;;;;10289773;28;20082;-68
2021/01/31 23:29:20;;;;;;;32.83;22.10;;;;;;;;;;10279948;28;20052;-67
2021/01/31 23:34:19;;;;;;;35.90;21.92;;;;;;;;;;10279546;28;20510;-67
2021/01/31 23:39:16;;;;;;;34.13;22.63;;;;;;;;;;10279483;28;20045;-67
2021/01/31 23:44:14;;;;;;;42.03;22.60;;;;;;;;;;10279551;28;20076;-67
2021/01/31 23:49:11;;;;;;;35.83;23.25;;;;;;;;;;10278772;28;20085;-66
2021/01/31 23:54:09;;;;;;;39.28;23.10;;;;;;;;;;10279072;28;20068;-67
2021/01/31 23:59:06;;;;;;;40.85;25.05;;;;;;;;;;10278870;28;20441;-67
